createdAt,value
2023-02-22T00:01:35.739Z,8.33
2023-02-22T00:07:01.185Z,8.18
2023-02-22T00:12:22.929Z,8.09
2023-02-22T00:17:45.144Z,7.95
2023-02-22T00:23:09.325Z,8.06
2023-02-22T00:28:31.049Z,8.07
2023-02-22T00:33:52.723Z,8.18
2023-02-22T00:39:14.581Z,7.91
2023-02-22T00:44:36.281Z,7.81
2023-02-22T00:49:58.019Z,7.70
2023-02-22T00:55:26.435Z,7.72
2023-02-22T01:00:48.787Z,7.63
2023-02-22T01:06:10.530Z,7.80
2023-02-22T01:11:32.234Z,7.60
2023-02-22T01:16:55.210Z,7.28
2023-02-22T01:22:16.981Z,7.36
2023-02-22T01:27:38.954Z,7.63
2023-02-22T01:33:02.329Z,7.23
2023-02-22T01:38:24.003Z,7.09
2023-02-22T01:43:45.857Z,7.39
2023-02-22T01:49:09.744Z,7.39
2023-02-22T01:54:35.940Z,7.47
2023-02-22T02:00:09.771Z,7.44
2023-02-22T02:05:34.195Z,7.18
2023-02-22T02:10:57.991Z,7.22
2023-02-22T02:16:21.471Z,7.16
2023-02-22T02:22:09.308Z,7.08
2023-02-22T02:27:50.903Z,7.06
2023-02-22T02:33:29.565Z,7.00
2023-02-22T02:39:19.474Z,7.05
2023-02-22T02:44:48.618Z,7.01
2023-02-22T02:50:16.065Z,6.58
2023-02-22T02:55:37.877Z,6.61
2023-02-22T03:01:04.359Z,6.66
2023-02-22T03:06:47.923Z,6.79
2023-02-22T03:12:27.617Z,6.76
2023-02-22T03:18:17.719Z,6.61
2023-02-22T03:23:59.369Z,6.70
2023-02-22T03:29:24.626Z,6.55
2023-02-22T03:34:53.008Z,6.59
2023-02-22T03:40:25.901Z,6.42
2023-02-22T03:45:50.536Z,6.59
2023-02-22T03:51:17.365Z,6.72
2023-02-22T03:56:49.976Z,6.71
2023-02-22T04:02:11.697Z,6.67
2023-02-22T04:07:33.449Z,6.48
2023-02-22T04:12:55.181Z,6.52
2023-02-22T04:18:16.870Z,6.62
2023-02-22T04:23:38.548Z,6.46
2023-02-22T04:29:00.246Z,6.38
2023-02-22T04:34:21.964Z,6.51
2023-02-22T04:39:43.719Z,6.35
2023-02-22T04:45:07.973Z,6.42
2023-02-22T04:50:29.750Z,6.37
2023-02-22T04:55:51.462Z,6.23
2023-02-22T05:01:14.631Z,6.24
2023-02-22T05:06:36.553Z,6.33
2023-02-22T05:11:58.212Z,6.30
2023-02-22T05:17:19.884Z,6.14
2023-02-22T05:22:41.552Z,5.94
2023-02-22T05:28:08.802Z,6.17
2023-02-22T05:33:30.516Z,6.13
2023-02-22T05:38:52.196Z,6.18
2023-02-22T05:44:13.999Z,6.34
2023-02-22T05:49:35.668Z,6.08
2023-02-22T05:54:57.480Z,6.12
2023-02-22T06:00:23.120Z,6.11
2023-02-22T06:05:44.813Z,6.13
2023-02-22T06:11:06.579Z,6.27
2023-02-22T06:16:28.307Z,6.24
2023-02-22T06:21:59.875Z,6.08
2023-02-22T06:27:21.551Z,6.02
2023-02-22T06:32:43.301Z,6.03
2023-02-22T06:38:04.990Z,6.03
2023-02-22T06:43:26.695Z,6.04
2023-02-22T06:48:49.985Z,6.03
2023-02-22T06:54:11.852Z,6.11
2023-02-22T06:59:33.532Z,6.03
2023-02-22T07:04:55.241Z,6.11
2023-02-22T07:10:24.690Z,6.22
2023-02-22T07:15:46.459Z,6.23
2023-02-22T07:21:08.127Z,6.35
2023-02-22T07:26:29.901Z,6.37
2023-02-22T07:31:51.704Z,6.56
2023-02-22T07:37:13.454Z,6.59
2023-02-22T07:43:08.426Z,6.46
2023-02-22T07:48:31.442Z,6.61
2023-02-22T07:53:53.187Z,6.57
2023-02-22T07:59:16.334Z,6.68
2023-02-22T08:04:39.357Z,6.83
2023-02-22T08:10:01.111Z,6.99
2023-02-22T08:15:23.550Z,7.12
2023-02-22T08:20:47.321Z,7.18
2023-02-22T08:26:15.467Z,7.31
2023-02-22T08:31:37.237Z,7.45
2023-02-22T08:36:59.042Z,7.55
2023-02-22T08:42:20.757Z,7.49
2023-02-22T08:47:43.206Z,7.64
2023-02-22T08:53:05.717Z,7.87
2023-02-22T08:58:27.454Z,7.98
2023-02-22T09:03:49.203Z,8.19
2023-02-22T09:09:10.976Z,8.35
2023-02-22T09:14:32.664Z,8.43
2023-02-22T09:19:54.723Z,8.50
2023-02-22T09:25:20.374Z,8.59
2023-02-22T09:30:43.052Z,8.79
2023-02-22T09:36:06.852Z,8.88
2023-02-22T09:41:46.178Z,9.01
2023-02-22T09:47:18.064Z,9.15
2023-02-22T09:52:48.221Z,9.36
2023-02-22T09:58:35.094Z,9.60
2023-02-22T10:04:45.378Z,9.71
2023-02-22T10:10:13.751Z,9.80
2023-02-22T10:15:54.330Z,9.86
2023-02-22T10:21:37.336Z,9.98
2023-02-22T10:27:00.869Z,10.08
2023-02-22T10:32:31.096Z,10.24
2023-02-22T10:37:59.139Z,10.34
2023-02-22T10:43:20.914Z,10.48
2023-02-22T10:48:47.085Z,10.57
2023-02-22T10:54:33.458Z,10.64
2023-02-22T10:59:57.515Z,10.83
2023-02-22T11:05:37.177Z,10.92
2023-02-22T11:11:18.851Z,11.05
2023-02-22T11:16:49.565Z,11.17
2023-02-22T11:22:22.288Z,11.33
2023-02-22T11:27:46.920Z,11.52
2023-02-22T11:33:23.503Z,11.58
2023-02-22T11:38:58.567Z,11.65
2023-02-22T11:44:24.964Z,11.70
2023-02-22T11:49:47.401Z,11.78
2023-02-22T11:55:29.736Z,11.85
2023-02-22T12:01:17.319Z,11.97
2023-02-22T12:07:01.811Z,12.07
2023-02-22T12:12:44.685Z,12.20
2023-02-22T12:18:16.104Z,12.34
2023-02-22T12:23:53.253Z,12.40
2023-02-22T12:29:28.033Z,12.40
2023-02-22T12:34:58.244Z,12.56
2023-02-22T12:40:35.562Z,12.64
2023-02-22T12:46:06.780Z,12.69
2023-02-22T12:51:43.660Z,12.80
2023-02-22T12:57:17.821Z,12.86
2023-02-22T13:03:03.345Z,12.85
2023-02-22T13:08:37.562Z,12.87
2023-02-22T13:14:20.178Z,12.90
2023-02-22T13:19:59.278Z,12.94
2023-02-22T13:25:33.365Z,13.06
2023-02-22T13:31:15.516Z,13.19
2023-02-22T13:36:58.150Z,13.21
2023-02-22T13:42:25.123Z,13.18
2023-02-22T13:48:14.529Z,13.18
2023-02-22T13:53:46.967Z,13.21
2023-02-22T13:59:23.987Z,13.18
2023-02-22T14:04:45.709Z,13.13
2023-02-22T14:10:38.225Z,13.05
2023-02-22T14:16:00.032Z,13.03
2023-02-22T14:21:22.912Z,13.04
2023-02-22T14:27:04.908Z,13.07
2023-02-22T14:32:34.881Z,13.05
2023-02-22T14:37:59.486Z,13.04
2023-02-22T14:43:24.146Z,13.03
2023-02-22T14:48:49.215Z,13.02
2023-02-22T14:54:26.659Z,13.02
2023-02-22T14:59:59.977Z,13.01
2023-02-22T15:05:21.648Z,13.02
2023-02-22T15:10:48.628Z,13.02
2023-02-22T15:16:14.605Z,13.03
2023-02-22T15:21:36.493Z,12.99
2023-02-22T15:27:24.676Z,12.88
2023-02-22T15:33:02.493Z,12.90
2023-02-22T15:38:30.449Z,12.84
2023-02-22T15:44:21.304Z,12.88
2023-02-22T15:49:45.271Z,12.84
2023-02-22T15:55:10.931Z,12.77
2023-02-22T16:00:36.438Z,12.78
2023-02-22T16:05:59.237Z,12.69
2023-02-22T16:11:30.800Z,12.65
2023-02-22T16:17:30.806Z,12.64
2023-02-22T16:22:57.545Z,12.61
2023-02-22T16:28:33.855Z,12.53
2023-02-22T16:33:55.854Z,12.47
2023-02-22T16:39:27.074Z,12.42
2023-02-22T16:44:48.766Z,12.35
2023-02-22T16:50:11.563Z,12.18
2023-02-22T16:55:36.547Z,12.14
2023-02-22T17:00:58.353Z,12.13
2023-02-22T17:06:20.609Z,12.08
2023-02-22T17:11:42.735Z,11.90
2023-02-22T17:17:04.413Z,11.93
2023-02-22T17:22:26.092Z,11.75
2023-02-22T17:27:47.849Z,11.68
2023-02-22T17:33:15.932Z,11.64
2023-02-22T17:38:41.432Z,11.48
2023-02-22T17:44:04.661Z,11.44
2023-02-22T17:49:26.509Z,11.57
2023-02-22T17:54:48.193Z,11.59
2023-02-22T18:00:15.659Z,11.50
2023-02-22T18:05:43.456Z,11.54
2023-02-22T18:11:05.261Z,11.57
2023-02-22T18:16:27.577Z,11.43
2023-02-22T18:21:49.993Z,11.41
2023-02-22T18:27:11.880Z,11.35
2023-02-22T18:32:33.612Z,11.36
2023-02-22T18:37:55.358Z,11.27
2023-02-22T18:43:17.609Z,11.22
2023-02-22T18:48:39.750Z,11.26
2023-02-22T18:54:01.525Z,11.26
2023-02-22T18:59:23.286Z,11.25
2023-02-22T19:04:45.177Z,11.09
2023-02-22T19:10:07.487Z,11.05
2023-02-22T19:15:30.081Z,11.03
2023-02-22T19:20:59.586Z,11.01
2023-02-22T19:26:26.611Z,10.99
2023-02-22T19:31:51.208Z,10.97
2023-02-22T19:37:13.199Z,10.92
2023-02-22T19:42:37.699Z,10.95
2023-02-22T19:47:59.408Z,11.02
2023-02-22T19:53:21.199Z,10.94
2023-02-22T19:58:47.274Z,10.88
2023-02-22T20:04:11.318Z,10.75
2023-02-22T20:09:39.189Z,10.73
2023-02-22T20:15:01.009Z,10.76
2023-02-22T20:20:24.149Z,10.73
2023-02-22T20:25:54.125Z,10.81
2023-02-22T20:31:16.669Z,10.84
2023-02-22T20:36:41.401Z,10.70
2023-02-22T20:42:05.171Z,10.64
2023-02-22T20:47:27.042Z,10.59
2023-02-22T20:52:48.798Z,10.57
2023-02-22T20:58:10.616Z,10.49
2023-02-22T21:03:33.923Z,10.38
2023-02-22T21:08:57.973Z,10.30
2023-02-22T21:14:20.071Z,10.29
2023-02-22T21:19:42.522Z,10.25
2023-02-22T21:25:04.876Z,10.25
2023-02-22T21:30:27.712Z,10.18
2023-02-22T21:35:50.349Z,10.03
2023-02-22T21:41:17.703Z,10.08
2023-02-22T21:46:39.949Z,10.08
2023-02-22T21:52:01.766Z,9.95
2023-02-22T21:57:23.562Z,9.90
2023-02-22T22:02:47.909Z,9.86
2023-02-22T22:08:13.204Z,9.77
2023-02-22T22:13:37.600Z,9.82
2023-02-22T22:18:59.351Z,9.77
2023-02-22T22:24:22.797Z,9.72
2023-02-22T22:29:45.382Z,9.74
2023-02-22T22:35:14.395Z,9.66
2023-02-22T22:40:38.729Z,9.59
2023-02-22T22:46:01.727Z,9.42
2023-02-22T22:51:23.697Z,9.35
2023-02-22T22:56:46.382Z,9.33
2023-02-22T23:02:10.866Z,9.29
2023-02-22T23:07:34.414Z,9.31
2023-02-22T23:12:56.558Z,9.40
2023-02-22T23:18:20.424Z,9.41
2023-02-22T23:23:42.230Z,9.61
2023-02-22T23:29:04.242Z,9.67
2023-02-22T23:34:26.373Z,9.70
2023-02-22T23:39:48.491Z,9.62
2023-02-22T23:45:15.041Z,9.71
2023-02-22T23:50:36.709Z,9.79
2023-02-22T23:56:00.181Z,9.67
